This demonstration page uses our WeatherBlox Daily Observations layout. Learn more.

Hourly Observations for December 8, 2019

Temp ( °F °C ) Dew Point ( °F °C ) Humidity (%) Winds ( mph kmh ) Pressure ( in mb ) Visibility ( mi km ) Precip ( " mm )
12:54 am 00:54 Clear 41 5 26 -3.3 55 55 SSW 13 20 29.85 1011 10 16.0934 0 0
1:54 am 01:54 Clear 40 4.4 26 -3.3 58 58 SSW 9 15 29.85 1011 10 16.0934 0 0
2:54 am 02:54 Clear 37 2.8 26 -3.3 65 65 S 6 9 29.85 1011 10 16.0934 0 0
3:54 am 03:54 Clear 35 1.7 25 -3.9 67 67 S 6 9 29.84 1010 10 16.0934 0 0
4:54 am 04:54 Clear 31 -0.6 25 -3.9 79 79 SSE 6 9 29.83 1010 10 16.0934 0 0
5:54 am 05:54 Clear 33 0.6 25 -3.9 72 72 S 5 7 29.82 1010 10 16.0934 0 0
6:54 am 06:54 Clear 32 0 25 -3.9 75 75 Calm 29.82 1010 10 16.0934 0 0
7:54 am 07:54 Sunny 30 -1.1 25 -3.9 82 82 S 5 7 29.82 1010 10 16.0934 0 0
8:54 am 08:54 Sunny 33 0.6 26 -3.3 75 75 Calm 29.83 1010 10 16.0934 0 0
9:54 am 09:54 Sunny 36 2.2 29 -1.7 76 76 SSW 3 6 29.83 1010 10 16.0934 0 0
10:54 am 10:54 Sunny 38 3.3 30 -1.1 73 73 Calm 29.81 1009 10 16.0934 0 0
11:54 am 11:54 Sunny 43 6.1 31 -0.6 63 63 Calm 29.78 1009 10 16.0934 0 0
12:54 pm 12:54 Sunny 47 8.3 32 0 56 56 Calm 29.74 1007 10 16.0934 0 0
1:54 pm 13:54 Sunny 49 9.4 32 0 52 52 SSE 7 11 29.7 1006 10 16.0934 0 0
2:54 pm 14:54 Sunny 51 10.6 33 0.6 50 50 Calm 29.71 1006 10 16.0934 0 0
3:54 pm 15:54 Sunny 49 9.4 33 0.6 55 55 SSE 5 7 29.7 1006 10 16.0934 0 0
4:54 pm 16:54 Sunny 45 7.2 33 0.6 63 63 SSE 5 7 29.7 1006 10 16.0934 0 0
5:54 pm 17:54 Clear 43 6.1 32 0 65 65 SE 6 9 29.7 1006 10 16.0934 0 0
6:54 pm 18:54 Clear 43 6.1 32 0 65 65 E 3 6 29.7 1006 10 16.0934 0 0
7:54 pm 19:54 Clear 39 3.9 31 -0.6 73 73 E 5 7 29.69 1006 10 16.0934 0 0
8:54 pm 20:54 Clear 38 3.3 31 -0.6 76 76 Calm 29.68 1005 10 16.0934 0 0
9:54 pm 21:54 Clear 37 2.8 31 -0.6 79 79 SE 6 9 29.65 1004 10 16.0934 0 0
10:54 pm 22:54 Clear 37 2.8 32 0 82 82 Calm 29.65 1004 10 16.0934 0 0
11:54 pm 23:54 Mostly Clear 34 1.1 30 -1.1 85 85 Calm 29.63 1003 10 16.0934 0 0

Powered by AerisWeather